createdAt,value
2023-03-08T00:01:28.338Z,44.00
2023-03-08T00:03:59.731Z,44.10
2023-03-08T00:06:29.421Z,44.10
2023-03-08T00:08:59.104Z,44.10
2023-03-08T00:11:26.713Z,44.20
2023-03-08T00:13:55.015Z,44.20
2023-03-08T00:16:22.338Z,44.30
2023-03-08T00:18:52.344Z,44.40
2023-03-08T00:21:22.433Z,44.40
2023-03-08T00:23:54.307Z,44.40
2023-03-08T00:26:21.651Z,44.50
2023-03-08T00:28:48.836Z,44.60
2023-03-08T00:31:15.942Z,44.70
2023-03-08T00:33:42.873Z,44.70
2023-03-08T00:36:22.240Z,44.80
2023-03-08T00:38:51.110Z,44.90
2023-03-08T00:41:21.213Z,44.90
2023-03-08T00:43:48.749Z,44.90
2023-03-08T00:46:16.115Z,45.00
2023-03-08T00:48:43.419Z,45.00
2023-03-08T00:51:16.034Z,44.90
2023-03-08T00:53:43.244Z,45.00
2023-03-08T00:56:13.081Z,45.00
2023-03-08T00:58:43.302Z,45.00
2023-03-08T01:01:18.932Z,45.00
2023-03-08T01:03:48.876Z,45.20
2023-03-08T01:06:16.360Z,45.20
2023-03-08T01:08:46.274Z,45.30
2023-03-08T01:11:20.861Z,45.40
2023-03-08T01:13:48.928Z,45.40
2023-03-08T01:16:28.292Z,45.50
2023-03-08T01:18:59.601Z,45.40
2023-03-08T01:21:28.802Z,45.40
2023-03-08T01:23:56.459Z,45.40
2023-03-08T01:26:26.562Z,45.50
2023-03-08T01:28:53.475Z,45.60
2023-03-08T01:31:29.502Z,45.60
2023-03-08T01:33:57.554Z,45.60
2023-03-08T01:36:27.866Z,45.50
2023-03-08T01:38:55.504Z,45.50
2023-03-08T01:41:29.397Z,45.60
2023-03-08T01:43:56.741Z,45.60
2023-03-08T01:46:35.233Z,45.70
2023-03-08T01:49:14.194Z,45.80
2023-03-08T01:51:52.270Z,45.80
2023-03-08T01:54:34.869Z,46.00
2023-03-08T01:57:33.628Z,46.10
2023-03-08T02:00:11.075Z,46.20
2023-03-08T02:02:48.229Z,46.10
2023-03-08T02:05:16.869Z,46.20
2023-03-08T02:07:43.791Z,46.20
2023-03-08T02:10:12.742Z,46.30
2023-03-08T02:12:40.986Z,46.30
2023-03-08T02:15:14.702Z,46.30
2023-03-08T02:17:42.652Z,46.40
2023-03-08T02:20:37.179Z,46.40
2023-03-08T02:23:18.320Z,46.50
2023-03-08T02:25:54.344Z,46.40
2023-03-08T02:28:26.739Z,46.60
2023-03-08T02:30:55.265Z,46.60
2023-03-08T02:33:22.470Z,46.60
2023-03-08T02:35:50.137Z,46.60
2023-03-08T02:38:21.158Z,46.70
2023-03-08T02:40:51.498Z,46.70
2023-03-08T02:43:21.211Z,46.80
2023-03-08T02:45:48.672Z,46.80
2023-03-08T02:48:16.331Z,46.70
2023-03-08T02:50:43.551Z,46.70
2023-03-08T02:53:15.064Z,46.70
2023-03-08T02:55:44.517Z,46.90
2023-03-08T02:58:17.033Z,46.90
2023-03-08T03:00:44.098Z,46.90
2023-03-08T03:03:11.121Z,46.90
2023-03-08T03:05:45.450Z,47.00
2023-03-08T03:08:14.755Z,47.20
2023-03-08T03:10:41.891Z,47.20
2023-03-08T03:13:09.014Z,47.20
2023-03-08T03:15:39.294Z,47.20
2023-03-08T03:18:06.311Z,47.30
2023-03-08T03:20:34.199Z,47.20
2023-03-08T03:23:01.415Z,47.20
2023-03-08T03:25:28.794Z,47.20
2023-03-08T03:27:56.681Z,47.20
2023-03-08T03:30:23.585Z,47.20
2023-03-08T03:32:50.631Z,47.20
2023-03-08T03:35:17.650Z,47.20
2023-03-08T03:37:44.489Z,47.20
2023-03-08T03:40:16.002Z,47.20
2023-03-08T03:42:42.830Z,47.30
2023-03-08T03:45:10.578Z,47.50
2023-03-08T03:47:37.409Z,47.30
2023-03-08T03:50:07.550Z,47.30
2023-03-08T03:52:37.569Z,47.30
2023-03-08T03:55:08.111Z,47.30
2023-03-08T03:57:37.510Z,47.30
2023-03-08T04:00:07.194Z,47.40
2023-03-08T04:02:34.221Z,47.40
2023-03-08T04:05:03.589Z,47.50
2023-03-08T04:07:33.112Z,47.60
2023-03-08T04:10:00.442Z,47.60
2023-03-08T04:12:32.155Z,47.60
2023-03-08T04:15:01.170Z,47.70
2023-03-08T04:17:30.572Z,47.70
2023-03-08T04:20:00.551Z,47.70
2023-03-08T04:22:27.356Z,47.80
2023-03-08T04:24:56.623Z,47.80
2023-03-08T04:27:26.536Z,47.80
2023-03-08T04:29:55.808Z,47.90
2023-03-08T04:32:22.813Z,47.90
2023-03-08T04:34:49.675Z,47.90
2023-03-08T04:37:19.240Z,48.00
2023-03-08T04:39:47.847Z,48.00
2023-03-08T04:42:17.145Z,48.00
2023-03-08T04:44:44.040Z,48.10
2023-03-08T04:47:10.970Z,48.10
2023-03-08T04:49:40.481Z,48.20
2023-03-08T04:52:07.397Z,48.20
2023-03-08T04:54:34.321Z,48.20
2023-03-08T04:57:03.896Z,48.30
2023-03-08T04:59:33.295Z,48.50
2023-03-08T05:02:00.251Z,48.50
2023-03-08T05:04:29.434Z,48.50
2023-03-08T05:06:56.426Z,48.60
2023-03-08T05:09:26.359Z,48.60
2023-03-08T05:11:53.300Z,48.70
2023-03-08T05:14:21.763Z,48.60
2023-03-08T05:16:55.434Z,48.60
2023-03-08T05:19:22.330Z,48.70
2023-03-08T05:21:49.301Z,48.70
2023-03-08T05:24:16.159Z,48.80
2023-03-08T05:26:43.174Z,48.90
2023-03-08T05:29:10.174Z,48.90
2023-03-08T05:31:40.117Z,49.00
2023-03-08T05:34:12.431Z,49.10
2023-03-08T05:36:39.362Z,49.10
2023-03-08T05:39:08.356Z,49.20
2023-03-08T05:41:35.717Z,49.20
2023-03-08T05:44:02.728Z,49.20
2023-03-08T05:46:32.244Z,49.10
2023-03-08T05:48:59.134Z,49.20
2023-03-08T05:51:28.498Z,49.10
2023-03-08T05:53:55.465Z,49.00
2023-03-08T05:56:24.203Z,49.00
2023-03-08T05:58:54.488Z,49.00
2023-03-08T06:01:24.462Z,48.90
2023-03-08T06:03:54.473Z,49.10
2023-03-08T06:06:23.513Z,49.10
2023-03-08T06:08:54.003Z,49.10
2023-03-08T06:11:23.414Z,49.10
2023-03-08T06:13:52.511Z,49.10
2023-03-08T06:16:19.460Z,49.10
2023-03-08T06:18:48.986Z,49.10
2023-03-08T06:21:21.291Z,49.10
2023-03-08T06:23:50.621Z,49.30
2023-03-08T06:26:17.746Z,49.20
2023-03-08T06:28:47.003Z,49.20
2023-03-08T06:31:17.720Z,49.30
2023-03-08T06:33:44.883Z,49.30
2023-03-08T06:36:18.630Z,49.20
2023-03-08T06:38:48.602Z,49.40
2023-03-08T06:41:20.431Z,49.40
2023-03-08T06:43:51.209Z,49.60
2023-03-08T06:46:19.376Z,49.60
2023-03-08T06:48:51.370Z,49.70
2023-03-08T06:51:19.090Z,49.70
2023-03-08T06:53:47.350Z,49.80
2023-03-08T06:56:16.951Z,49.70
2023-03-08T06:58:44.301Z,49.80
2023-03-08T07:01:13.162Z,49.70
2023-03-08T07:03:44.394Z,49.70
2023-03-08T07:06:13.909Z,49.70
2023-03-08T07:08:41.321Z,49.80
2023-03-08T07:11:09.769Z,49.80
2023-03-08T07:13:38.421Z,49.90
2023-03-08T07:16:13.344Z,49.90
2023-03-08T07:18:41.323Z,50.00
2023-03-08T07:21:10.229Z,50.00
2023-03-08T07:23:37.267Z,50.00
2023-03-08T07:26:08.767Z,50.00
2023-03-08T07:28:40.537Z,50.00
2023-03-08T07:31:12.239Z,50.60
2023-03-08T07:33:39.292Z,49.90
2023-03-08T07:36:07.049Z,49.80
2023-03-08T07:38:34.081Z,49.70
2023-03-08T07:41:03.282Z,49.50
2023-03-08T07:43:30.203Z,49.30
2023-03-08T07:46:01.847Z,49.30
2023-03-08T07:48:29.659Z,49.10
2023-03-08T07:51:07.374Z,49.10
2023-03-08T07:53:37.243Z,48.90
2023-03-08T07:56:08.791Z,48.70
2023-03-08T07:58:35.549Z,49.00
2023-03-08T08:01:13.282Z,49.50
2023-03-08T08:03:43.288Z,49.80
2023-03-08T08:06:10.677Z,49.50
2023-03-08T08:08:37.579Z,48.90
2023-03-08T08:11:16.145Z,48.40
2023-03-08T08:13:48.140Z,48.00
2023-03-08T08:16:18.197Z,47.70
2023-03-08T08:18:45.416Z,47.60
2023-03-08T08:21:17.885Z,47.50
2023-03-08T08:23:50.569Z,47.80
2023-03-08T08:26:20.901Z,48.10
2023-03-08T08:28:52.886Z,48.60
2023-03-08T08:31:24.909Z,49.60
2023-03-08T08:33:55.226Z,49.20
2023-03-08T08:36:22.175Z,49.50
2023-03-08T08:38:52.103Z,48.80
2023-03-08T08:41:23.402Z,47.60
2023-03-08T08:43:58.930Z,46.30
2023-03-08T08:46:30.968Z,45.70
2023-03-08T08:49:01.098Z,44.50
2023-03-08T08:51:28.394Z,42.50
2023-03-08T08:53:55.965Z,41.90
2023-03-08T08:56:28.799Z,41.50
2023-03-08T08:59:05.440Z,41.20
2023-03-08T09:01:34.371Z,40.90
2023-03-08T09:04:01.346Z,41.00
2023-03-08T09:06:31.385Z,41.20
2023-03-08T09:08:59.653Z,41.40
2023-03-08T09:11:29.572Z,41.80
2023-03-08T09:13:57.317Z,42.20
2023-03-08T09:16:32.846Z,42.60
2023-03-08T09:19:04.382Z,42.90
2023-03-08T09:21:32.703Z,43.30
2023-03-08T09:24:09.859Z,43.60
2023-03-08T09:26:39.233Z,43.70
2023-03-08T09:29:08.679Z,43.90
2023-03-08T09:31:37.772Z,44.00
2023-03-08T09:34:09.534Z,44.40
2023-03-08T09:36:39.522Z,44.70
2023-03-08T09:39:09.024Z,45.00
2023-03-08T09:41:51.828Z,45.40
2023-03-08T09:45:08.187Z,45.70
2023-03-08T09:48:13.742Z,46.00
2023-03-08T09:50:45.814Z,46.20
2023-03-08T09:53:21.254Z,46.30
2023-03-08T09:55:58.794Z,46.50
2023-03-08T09:59:10.456Z,46.80
2023-03-08T10:02:15.520Z,46.90
2023-03-08T10:05:13.249Z,47.40
2023-03-08T10:07:52.439Z,47.30
2023-03-08T10:10:38.184Z,47.80
2023-03-08T10:13:26.171Z,47.90
2023-03-08T10:16:04.658Z,47.90
2023-03-08T10:18:50.829Z,47.90
2023-03-08T10:21:25.278Z,48.70
2023-03-08T10:24:06.765Z,48.60
2023-03-08T10:26:35.048Z,49.30
2023-03-08T10:29:01.968Z,49.10
2023-03-08T10:31:33.576Z,49.30
2023-03-08T10:34:06.517Z,49.40
2023-03-08T10:36:53.540Z,49.80
2023-03-08T10:39:23.539Z,49.40
2023-03-08T10:42:12.663Z,49.60
2023-03-08T10:44:46.550Z,50.10
2023-03-08T10:47:21.088Z,50.00
2023-03-08T10:49:51.604Z,50.50
2023-03-08T10:52:28.425Z,50.40
2023-03-08T10:55:12.208Z,50.80
2023-03-08T10:57:44.080Z,51.10
2023-03-08T11:00:22.574Z,50.90
2023-03-08T11:03:23.280Z,51.20
2023-03-08T11:05:58.874Z,51.50
2023-03-08T11:08:34.796Z,51.30
2023-03-08T11:11:17.007Z,51.70
2023-03-08T11:13:46.963Z,52.10
2023-03-08T11:16:53.930Z,51.90
2023-03-08T11:19:51.071Z,52.40
2023-03-08T11:22:49.808Z,52.40
2023-03-08T11:25:25.958Z,52.60
2023-03-08T11:28:17.259Z,52.90
2023-03-08T11:30:47.042Z,52.90
2023-03-08T11:33:54.855Z,52.80
2023-03-08T11:36:50.983Z,53.50
2023-03-08T11:39:43.518Z,53.40
2023-03-08T11:42:47.168Z,54.50
2023-03-08T11:45:36.034Z,54.10
2023-03-08T11:48:20.862Z,54.10
2023-03-08T11:51:01.152Z,53.70
2023-03-08T11:54:08.123Z,54.60
2023-03-08T11:56:59.800Z,54.70
2023-03-08T11:59:41.863Z,54.70
2023-03-08T12:02:10.849Z,54.50
2023-03-08T12:04:52.174Z,54.20
2023-03-08T12:08:00.707Z,54.40
2023-03-08T12:10:58.027Z,54.80
2023-03-08T12:13:35.736Z,54.60
2023-03-08T12:16:24.122Z,54.10
2023-03-08T12:19:17.723Z,53.80
2023-03-08T12:22:20.908Z,54.20
2023-03-08T12:25:06.126Z,53.90
2023-03-08T12:28:24.448Z,53.70
2023-03-08T12:31:27.487Z,54.20
2023-03-08T12:34:00.032Z,54.30
2023-03-08T12:36:45.311Z,53.80
2023-03-08T12:39:36.337Z,54.30
2023-03-08T12:42:03.220Z,54.70
2023-03-08T12:44:32.676Z,54.20
2023-03-08T12:47:22.417Z,54.50
2023-03-08T12:50:08.784Z,55.20
2023-03-08T12:52:36.116Z,55.10
2023-03-08T12:55:27.028Z,55.00
2023-03-08T12:57:58.737Z,55.50
2023-03-08T13:00:34.618Z,55.00
2023-03-08T13:03:31.343Z,55.10
2023-03-08T13:06:00.429Z,55.20
2023-03-08T13:08:58.517Z,55.10
2023-03-08T13:11:40.641Z,55.70
2023-03-08T13:15:03.392Z,55.10
2023-03-08T13:17:33.083Z,55.80
2023-03-08T13:20:24.559Z,55.10
2023-03-08T13:23:10.734Z,55.50
2023-03-08T13:26:14.677Z,55.70
2023-03-08T13:28:47.982Z,55.30
2023-03-08T13:31:30.391Z,55.30
2023-03-08T13:34:01.240Z,56.50
2023-03-08T13:36:36.276Z,55.40
2023-03-08T13:39:21.200Z,55.70
2023-03-08T13:41:49.331Z,55.70
2023-03-08T13:44:23.428Z,55.60
2023-03-08T13:47:19.860Z,55.70
2023-03-08T13:49:52.847Z,55.80
2023-03-08T13:52:31.626Z,55.90
2023-03-08T13:55:02.882Z,56.10
2023-03-08T13:57:36.490Z,56.20
2023-03-08T14:00:31.539Z,56.20
2023-03-08T14:03:03.755Z,57.00
2023-03-08T14:05:43.075Z,56.40
2023-03-08T14:08:25.393Z,56.70
2023-03-08T14:11:04.780Z,57.00
2023-03-08T14:13:38.635Z,57.10
2023-03-08T14:16:24.223Z,57.00
2023-03-08T14:18:56.465Z,57.00
2023-03-08T14:21:30.313Z,57.20
2023-03-08T14:24:09.884Z,57.50
2023-03-08T14:26:43.202Z,57.50
2023-03-08T14:29:25.114Z,57.60
2023-03-08T14:32:05.448Z,58.10
2023-03-08T14:34:36.281Z,57.80
2023-03-08T14:37:16.205Z,57.60
2023-03-08T14:39:46.826Z,57.60
2023-03-08T14:42:27.925Z,57.60
2023-03-08T14:45:16.277Z,57.90
2023-03-08T14:47:58.227Z,58.00
2023-03-08T14:50:30.663Z,57.80
2023-03-08T14:53:00.870Z,57.60
2023-03-08T14:55:36.039Z,57.60
2023-03-08T14:58:13.245Z,57.90
2023-03-08T15:00:55.490Z,58.20
2023-03-08T15:03:27.333Z,58.50
2023-03-08T15:05:57.714Z,58.10
2023-03-08T15:08:28.419Z,58.40
2023-03-08T15:10:57.616Z,58.30
2023-03-08T15:13:29.132Z,58.30
2023-03-08T15:15:55.969Z,58.30
2023-03-08T15:18:22.991Z,58.70
2023-03-08T15:20:54.828Z,58.00
2023-03-08T15:23:33.107Z,58.00
2023-03-08T15:26:03.965Z,58.30
2023-03-08T15:28:36.141Z,58.20
2023-03-08T15:31:07.720Z,58.20
2023-03-08T15:33:39.455Z,58.80
2023-03-08T15:36:08.934Z,58.20
2023-03-08T15:38:35.868Z,58.60
2023-03-08T15:41:07.263Z,58.00
2023-03-08T15:43:34.239Z,58.10
2023-03-08T15:46:03.631Z,58.20
2023-03-08T15:48:30.643Z,58.30
2023-03-08T15:51:00.341Z,58.40
2023-03-08T15:53:35.759Z,58.50
2023-03-08T15:56:06.189Z,58.60
2023-03-08T15:58:35.172Z,58.70
2023-03-08T16:01:04.361Z,58.70
2023-03-08T16:03:38.295Z,58.80
2023-03-08T16:06:15.024Z,58.90
2023-03-08T16:08:44.427Z,59.10
2023-03-08T16:11:22.066Z,59.00
2023-03-08T16:13:53.274Z,59.20
2023-03-08T16:16:21.362Z,59.20
2023-03-08T16:18:48.864Z,59.40
2023-03-08T16:21:20.656Z,59.30
2023-03-08T16:23:47.595Z,59.50
2023-03-08T16:26:17.635Z,59.80
2023-03-08T16:28:46.709Z,59.20
2023-03-08T16:31:15.735Z,59.30
2023-03-08T16:33:42.918Z,59.40
2023-03-08T16:36:13.998Z,59.50
2023-03-08T16:38:44.503Z,59.60
2023-03-08T16:41:14.703Z,59.60
2023-03-08T16:43:47.957Z,59.70
2023-03-08T16:46:23.188Z,59.70
2023-03-08T16:48:54.432Z,59.80
2023-03-08T16:51:25.543Z,59.80
2023-03-08T16:53:53.141Z,60.60
2023-03-08T16:56:28.825Z,59.80
2023-03-08T16:58:58.837Z,61.00
2023-03-08T17:01:26.428Z,60.00
2023-03-08T17:03:54.734Z,60.00
2023-03-08T17:06:26.186Z,60.10
2023-03-08T17:08:53.094Z,60.20
2023-03-08T17:11:28.981Z,60.20
2023-03-08T17:14:05.331Z,60.60
2023-03-08T17:16:33.268Z,60.50
2023-03-08T17:19:01.844Z,60.40
2023-03-08T17:21:31.255Z,60.50
2023-03-08T17:24:07.250Z,60.50
2023-03-08T17:26:39.265Z,60.70
2023-03-08T17:29:10.681Z,60.70
2023-03-08T17:31:41.050Z,60.70
2023-03-08T17:34:08.148Z,60.80
2023-03-08T17:36:35.165Z,60.90
2023-03-08T17:39:02.433Z,61.00
2023-03-08T17:41:29.415Z,61.00
2023-03-08T17:43:56.304Z,61.10
2023-03-08T17:46:27.706Z,61.20
2023-03-08T17:48:55.977Z,61.30
2023-03-08T17:51:26.924Z,61.30
2023-03-08T17:53:54.770Z,61.40
2023-03-08T17:56:26.505Z,61.40
2023-03-08T17:58:54.943Z,61.40
2023-03-08T18:01:25.895Z,61.40
2023-03-08T18:03:55.051Z,61.60
2023-03-08T18:06:41.573Z,61.50
2023-03-08T18:09:15.175Z,61.90
2023-03-08T18:11:49.058Z,61.80
2023-03-08T18:14:16.022Z,61.50
2023-03-08T18:16:44.827Z,61.50
2023-03-08T18:19:12.054Z,61.60
2023-03-08T18:21:41.858Z,61.50
2023-03-08T18:24:12.899Z,61.60
2023-03-08T18:26:39.824Z,61.70
2023-03-08T18:29:06.973Z,61.60
2023-03-08T18:31:37.214Z,61.70
2023-03-08T18:34:05.033Z,61.70
2023-03-08T18:36:32.434Z,61.80
2023-03-08T18:39:05.907Z,61.80
2023-03-08T18:41:35.228Z,61.80
2023-03-08T18:44:02.148Z,61.90
2023-03-08T18:46:31.226Z,62.00
2023-03-08T18:49:07.513Z,62.00
2023-03-08T18:51:39.372Z,62.20
2023-03-08T18:54:09.075Z,62.00
2023-03-08T18:56:38.725Z,62.10
2023-03-08T18:59:07.837Z,62.10
2023-03-08T19:01:37.401Z,62.20
2023-03-08T19:04:06.162Z,62.20
2023-03-08T19:06:34.498Z,62.20
2023-03-08T19:09:08.296Z,62.20
2023-03-08T19:11:37.762Z,62.20
2023-03-08T19:14:04.769Z,62.40
2023-03-08T19:16:37.333Z,62.40
2023-03-08T19:19:12.953Z,62.40
2023-03-08T19:21:43.815Z,62.60
2023-03-08T19:24:18.339Z,62.50
2023-03-08T19:26:53.259Z,62.60
2023-03-08T19:29:22.790Z,62.50
2023-03-08T19:31:53.562Z,62.60
2023-03-08T19:34:26.066Z,62.60
2023-03-08T19:36:53.629Z,62.60
2023-03-08T19:39:27.973Z,62.60
2023-03-08T19:42:03.411Z,62.80
2023-03-08T19:44:30.984Z,62.80
2023-03-08T19:47:01.434Z,62.80
2023-03-08T19:49:32.841Z,62.80
2023-03-08T19:52:03.620Z,62.90
2023-03-08T19:54:33.757Z,63.00
2023-03-08T19:57:01.614Z,63.00
2023-03-08T19:59:28.696Z,63.10
2023-03-08T20:01:56.138Z,63.10
2023-03-08T20:04:23.232Z,63.10
2023-03-08T20:06:59.614Z,63.20
2023-03-08T20:09:29.072Z,63.30
2023-03-08T20:12:02.933Z,63.30
2023-03-08T20:14:29.916Z,63.30
2023-03-08T20:16:59.111Z,63.30
2023-03-08T20:19:31.849Z,63.30
2023-03-08T20:21:58.985Z,63.30
2023-03-08T20:24:28.393Z,63.40
2023-03-08T20:26:59.961Z,63.50
2023-03-08T20:29:29.244Z,63.50
2023-03-08T20:31:58.237Z,64.00
2023-03-08T20:34:30.821Z,63.20
2023-03-08T20:36:57.759Z,63.30
2023-03-08T20:39:26.875Z,63.30
2023-03-08T20:41:58.352Z,63.40
2023-03-08T20:44:28.210Z,63.40
2023-03-08T20:46:55.058Z,63.40
2023-03-08T20:49:26.297Z,63.40
2023-03-08T20:51:53.416Z,63.40
2023-03-08T20:54:20.766Z,63.50
2023-03-08T20:56:50.550Z,63.40
2023-03-08T20:59:23.116Z,63.50
2023-03-08T21:01:50.351Z,63.50
2023-03-08T21:04:17.268Z,63.60
2023-03-08T21:06:46.766Z,63.60
2023-03-08T21:09:16.328Z,63.60
2023-03-08T21:11:43.485Z,63.60
2023-03-08T21:14:13.180Z,63.60
2023-03-08T21:16:42.956Z,63.60
2023-03-08T21:19:10.273Z,63.60
2023-03-08T21:21:41.596Z,63.50
2023-03-08T21:24:18.979Z,63.60
2023-03-08T21:26:49.323Z,63.60
2023-03-08T21:29:20.053Z,63.60
2023-03-08T21:31:52.163Z,63.60
2023-03-08T21:34:22.647Z,63.60
2023-03-08T21:36:52.146Z,63.50
2023-03-08T21:39:22.708Z,63.60
2023-03-08T21:41:50.574Z,63.50
2023-03-08T21:44:22.234Z,63.40
2023-03-08T21:46:52.975Z,63.50
2023-03-08T21:49:27.771Z,63.50
2023-03-08T21:51:58.895Z,63.70
2023-03-08T21:54:32.818Z,63.70
2023-03-08T21:57:00.264Z,63.50
2023-03-08T21:59:28.871Z,63.50
2023-03-08T22:01:58.845Z,63.60
2023-03-08T22:04:31.356Z,63.60
2023-03-08T22:07:03.742Z,63.70
2023-03-08T22:09:35.249Z,63.70
2023-03-08T22:12:02.315Z,63.70
2023-03-08T22:14:33.300Z,63.70
2023-03-08T22:17:03.287Z,63.80
2023-03-08T22:19:32.595Z,63.80
2023-03-08T22:22:00.719Z,63.80
2023-03-08T22:24:32.097Z,63.90
2023-03-08T22:26:59.064Z,63.90
2023-03-08T22:29:25.949Z,63.90
2023-03-08T22:31:55.033Z,64.00
2023-03-08T22:34:24.217Z,64.00
2023-03-08T22:36:53.430Z,64.00
2023-03-08T22:39:20.310Z,64.00
2023-03-08T22:41:47.161Z,64.00
2023-03-08T22:44:15.041Z,64.20
2023-03-08T22:46:44.668Z,64.10
2023-03-08T22:49:16.078Z,64.20
2023-03-08T22:51:43.876Z,64.10
2023-03-08T22:54:22.250Z,64.20
2023-03-08T22:56:50.078Z,64.30
2023-03-08T22:59:17.583Z,64.10
2023-03-08T23:01:44.576Z,64.20
2023-03-08T23:04:13.836Z,64.20
2023-03-08T23:06:49.735Z,64.30
2023-03-08T23:09:17.134Z,64.20
2023-03-08T23:11:47.167Z,64.20
2023-03-08T23:14:16.583Z,64.20
2023-03-08T23:16:46.092Z,64.30
2023-03-08T23:19:19.792Z,64.30
2023-03-08T23:21:46.993Z,64.30
2023-03-08T23:24:17.685Z,64.30
2023-03-08T23:26:46.277Z,64.30
2023-03-08T23:29:16.322Z,64.30
2023-03-08T23:31:45.684Z,64.40
2023-03-08T23:34:13.164Z,64.40
2023-03-08T23:36:40.059Z,64.40
2023-03-08T23:39:07.224Z,64.40
2023-03-08T23:41:34.094Z,64.40
2023-03-08T23:44:02.141Z,64.40
2023-03-08T23:46:29.981Z,64.40
2023-03-08T23:49:01.146Z,64.50
2023-03-08T23:51:31.975Z,64.50
2023-03-08T23:54:00.721Z,64.50
2023-03-08T23:56:38.218Z,64.50
2023-03-08T23:59:13.094Z,64.80
